createdAt,value
2019-03-22T00:01:43.776Z,99.90
2019-03-22T00:04:15.602Z,99.90
2019-03-22T00:06:48.148Z,99.90
2019-03-22T00:09:19.821Z,99.90
2019-03-22T00:11:51.986Z,99.90
2019-03-22T00:14:23.556Z,99.90
2019-03-22T00:16:55.936Z,99.90
2019-03-22T00:19:28.886Z,99.90
2019-03-22T00:22:01.154Z,99.90
2019-03-22T00:24:32.993Z,99.90
2019-03-22T00:27:15.985Z,99.90
2019-03-22T00:29:39.534Z,99.90
2019-03-22T00:32:11.047Z,99.90
2019-03-22T00:34:43.869Z,99.90
2019-03-22T00:37:15.660Z,99.90
2019-03-22T00:39:47.585Z,99.90
2019-03-22T00:42:19.446Z,99.90
2019-03-22T00:44:50.990Z,99.90
2019-03-22T00:47:22.741Z,99.90
2019-03-22T00:49:54.773Z,99.90
2019-03-22T00:52:27.624Z,99.90
2019-03-22T00:54:59.501Z,99.90
2019-03-22T00:57:31.305Z,99.90
2019-03-22T01:00:03.341Z,99.90
2019-03-22T01:02:34.973Z,99.90
2019-03-22T01:05:08.129Z,99.90
2019-03-22T01:07:40.448Z,99.90
2019-03-22T01:10:12.918Z,99.90
2019-03-22T01:12:44.613Z,99.90
2019-03-22T01:15:16.874Z,99.90
2019-03-22T01:17:48.637Z,99.90
2019-03-22T01:20:20.271Z,99.90
2019-03-22T01:22:51.851Z,99.90
2019-03-22T01:25:23.513Z,99.90
2019-03-22T01:27:55.146Z,99.90
2019-03-22T01:30:26.912Z,99.90
2019-03-22T01:32:59.583Z,99.90
2019-03-22T01:35:31.491Z,99.90
2019-03-22T01:38:03.860Z,99.90
2019-03-22T01:40:35.506Z,99.90
2019-03-22T01:43:07.081Z,99.90
2019-03-22T01:45:38.959Z,99.90
2019-03-22T01:48:10.858Z,99.90
2019-03-22T01:50:42.393Z,99.90
2019-03-22T01:53:14.176Z,99.90
2019-03-22T01:55:45.820Z,99.90
2019-03-22T01:58:17.443Z,99.90
2019-03-22T02:00:49.383Z,99.90
2019-03-22T02:03:21.957Z,99.90
2019-03-22T02:05:53.532Z,99.90
2019-03-22T02:08:26.108Z,99.90
2019-03-22T02:10:57.852Z,99.90
2019-03-22T02:13:29.598Z,99.90
2019-03-22T02:16:01.350Z,99.90
2019-03-22T02:18:32.867Z,99.90
2019-03-22T02:21:04.678Z,99.90
2019-03-22T02:23:36.604Z,99.90
2019-03-22T02:26:08.652Z,99.90
2019-03-22T02:28:40.407Z,99.90
2019-03-22T02:31:12.111Z,99.90
2019-03-22T02:33:43.836Z,99.90
2019-03-22T02:36:17.751Z,99.90
2019-03-22T02:38:49.299Z,99.90
2019-03-22T02:41:21.027Z,99.90
2019-03-22T02:43:54.780Z,99.90
2019-03-22T02:46:26.016Z,99.90
2019-03-22T02:48:57.641Z,99.90
2019-03-22T02:51:29.785Z,99.90
2019-03-22T02:54:01.463Z,99.90
2019-03-22T02:56:33.421Z,99.90
2019-03-22T02:59:05.181Z,99.90
2019-03-22T03:01:36.904Z,99.90
2019-03-22T03:04:08.840Z,99.90
2019-03-22T03:06:40.483Z,99.90
2019-03-22T03:09:12.243Z,99.90
2019-03-22T03:11:44.072Z,99.90
2019-03-22T03:14:15.737Z,99.90
2019-03-22T03:16:47.449Z,99.90
2019-03-22T03:19:19.175Z,99.90
2019-03-22T03:21:52.329Z,99.90
2019-03-22T03:24:23.903Z,99.90
2019-03-22T03:26:56.532Z,99.90
2019-03-22T03:29:28.288Z,99.90
2019-03-22T03:31:59.975Z,99.90
2019-03-22T03:34:31.615Z,99.90
2019-03-22T03:37:03.887Z,99.90
2019-03-22T03:39:35.470Z,99.90
2019-03-22T03:42:17.207Z,99.90
2019-03-22T03:44:49.062Z,99.90
2019-03-22T03:47:20.751Z,99.90
2019-03-22T03:49:52.841Z,99.90
2019-03-22T03:52:24.692Z,99.90
2019-03-22T03:54:56.291Z,99.90
2019-03-22T03:57:29.012Z,99.90
2019-03-22T04:00:00.694Z,99.90
2019-03-22T04:02:32.645Z,99.90
2019-03-22T04:05:16.043Z,99.90
2019-03-22T04:07:48.023Z,99.90
2019-03-22T04:10:19.851Z,99.90
2019-03-22T04:12:51.653Z,99.90
2019-03-22T04:15:23.918Z,99.90
2019-03-22T04:17:55.844Z,99.90
2019-03-22T04:20:27.606Z,99.90
2019-03-22T04:22:59.247Z,99.90
2019-03-22T04:25:31.264Z,99.90
2019-03-22T04:28:02.967Z,99.90
2019-03-22T04:30:34.855Z,99.90
2019-03-22T04:33:07.201Z,99.90
2019-03-22T04:35:39.034Z,99.90
2019-03-22T04:38:10.872Z,99.90
2019-03-22T04:40:42.791Z,99.90
2019-03-22T04:43:14.784Z,99.90
2019-03-22T04:45:47.583Z,99.90
2019-03-22T04:48:25.275Z,99.90
2019-03-22T04:51:01.056Z,99.90
2019-03-22T04:53:38.339Z,99.90
2019-03-22T04:56:13.802Z,99.90
2019-03-22T04:58:48.677Z,99.90
2019-03-22T05:01:22.608Z,99.90
2019-03-22T05:03:55.823Z,99.90
2019-03-22T05:06:28.968Z,99.90
2019-03-22T05:09:02.374Z,99.90
2019-03-22T05:11:34.699Z,99.90
2019-03-22T05:14:07.892Z,99.90
2019-03-22T05:16:42.701Z,99.90
2019-03-22T05:19:15.478Z,99.90
2019-03-22T05:21:48.297Z,99.90
2019-03-22T05:24:21.186Z,99.90
2019-03-22T05:26:53.943Z,99.90
2019-03-22T05:29:30.793Z,99.90
2019-03-22T05:32:07.468Z,99.90
2019-03-22T05:34:39.243Z,99.90
2019-03-22T05:37:11.174Z,99.90
2019-03-22T05:39:42.909Z,99.90
2019-03-22T05:42:14.665Z,99.90
2019-03-22T05:44:46.307Z,99.90
2019-03-22T05:47:17.977Z,99.90
2019-03-22T05:49:49.653Z,99.90
2019-03-22T05:52:22.408Z,99.90
2019-03-22T05:54:54.010Z,99.90
2019-03-22T05:57:25.808Z,99.90
2019-03-22T05:59:58.467Z,99.90
2019-03-22T06:02:30.312Z,99.90
2019-03-22T06:05:02.113Z,99.90
2019-03-22T06:07:33.961Z,99.90
2019-03-22T06:10:06.859Z,99.90
2019-03-22T06:12:39.455Z,99.90
2019-03-22T06:15:12.635Z,99.90
2019-03-22T06:17:51.538Z,99.90
2019-03-22T06:20:17.714Z,99.90
2019-03-22T06:22:49.848Z,99.90
2019-03-22T06:25:21.606Z,99.90
2019-03-22T06:27:53.813Z,99.90
2019-03-22T06:30:25.575Z,99.90
2019-03-22T06:32:57.342Z,99.90
2019-03-22T06:35:32.370Z,99.90
2019-03-22T06:38:04.124Z,99.90
2019-03-22T06:40:35.853Z,99.90
2019-03-22T06:43:08.170Z,99.90
2019-03-22T06:45:44.541Z,99.90
2019-03-22T06:48:17.839Z,99.90
2019-03-22T06:50:50.051Z,99.90
2019-03-22T06:53:21.652Z,99.90
2019-03-22T06:55:53.533Z,99.90
2019-03-22T06:58:25.337Z,99.90
2019-03-22T07:00:57.323Z,99.90
2019-03-22T07:03:29.046Z,99.90
2019-03-22T07:06:00.971Z,99.90
2019-03-22T07:08:34.322Z,99.90
2019-03-22T07:11:06.486Z,99.90
2019-03-22T07:13:39.554Z,99.90
2019-03-22T07:16:12.900Z,99.90
2019-03-22T07:18:44.797Z,99.90
2019-03-22T07:21:16.428Z,99.90
2019-03-22T07:23:48.230Z,99.90
2019-03-22T07:26:19.744Z,99.90
2019-03-22T07:28:52.619Z,97.50
2019-03-22T07:31:24.144Z,94.00
2019-03-22T07:33:55.821Z,98.70
2019-03-22T07:36:27.431Z,96.60
2019-03-22T07:38:59.164Z,91.80
2019-03-22T07:41:30.843Z,90.60
2019-03-22T07:44:03.930Z,89.20
2019-03-22T07:46:35.940Z,91.40
2019-03-22T07:49:07.585Z,86.50
2019-03-22T07:51:39.207Z,86.80
2019-03-22T07:54:10.857Z,87.00
2019-03-22T07:56:42.470Z,82.30
2019-03-22T07:59:14.062Z,86.40
2019-03-22T08:01:45.945Z,86.40
2019-03-22T08:04:18.535Z,88.00
2019-03-22T08:06:50.399Z,84.00
2019-03-22T08:09:23.360Z,79.60
2019-03-22T08:11:55.366Z,80.70
2019-03-22T08:14:29.318Z,78.10
2019-03-22T08:17:01.640Z,77.50
2019-03-22T08:19:34.306Z,79.00
2019-03-22T08:22:06.236Z,74.30
2019-03-22T08:24:37.983Z,74.30
2019-03-22T08:27:09.742Z,77.00
2019-03-22T08:29:41.376Z,75.90
2019-03-22T08:32:12.994Z,73.50
2019-03-22T08:34:47.557Z,74.40
2019-03-22T08:37:18.330Z,74.80
2019-03-22T08:39:50.062Z,74.60
2019-03-22T08:42:21.932Z,73.20
2019-03-22T08:44:53.643Z,75.10
2019-03-22T08:47:33.804Z,74.70
2019-03-22T08:49:58.984Z,75.60
2019-03-22T08:52:30.722Z,70.90
2019-03-22T08:55:02.559Z,71.60
2019-03-22T08:57:34.336Z,71.50
2019-03-22T09:00:08.638Z,72.40
2019-03-22T09:02:40.454Z,71.50
2019-03-22T09:05:12.769Z,71.90
2019-03-22T09:07:44.395Z,67.10
2019-03-22T09:10:16.547Z,70.30
2019-03-22T09:12:48.494Z,67.90
2019-03-22T09:15:21.221Z,68.90
2019-03-22T09:17:53.148Z,70.10
2019-03-22T09:20:25.052Z,68.80
2019-03-22T09:22:56.819Z,67.90
2019-03-22T09:25:28.734Z,64.90
2019-03-22T09:28:00.629Z,62.60
2019-03-22T09:30:32.644Z,66.60
2019-03-22T09:33:09.687Z,63.20
2019-03-22T09:35:52.315Z,62.90
2019-03-22T09:38:24.885Z,65.60
2019-03-22T09:40:56.676Z,64.30
2019-03-22T09:43:28.483Z,63.50
2019-03-22T09:46:00.536Z,66.20
2019-03-22T09:48:32.215Z,61.50
2019-03-22T09:51:04.605Z,62.40
2019-03-22T09:53:36.363Z,59.90
2019-03-22T09:56:08.468Z,60.80
2019-03-22T09:58:41.627Z,57.90
2019-03-22T10:01:23.684Z,64.60
2019-03-22T10:03:47.610Z,59.60
2019-03-22T10:06:19.229Z,60.10
2019-03-22T10:08:51.257Z,60.50
2019-03-22T10:11:23.256Z,59.50
2019-03-22T10:13:55.034Z,59.30
2019-03-22T10:16:26.732Z,64.10
2019-03-22T10:18:58.632Z,59.70
2019-03-22T10:21:30.884Z,58.90
2019-03-22T10:24:03.277Z,61.90
2019-03-22T10:26:35.176Z,62.90
2019-03-22T10:29:07.422Z,63.40
2019-03-22T10:31:50.246Z,63.10
2019-03-22T10:34:22.311Z,61.10
2019-03-22T10:36:54.322Z,62.40
2019-03-22T10:39:26.268Z,61.50
2019-03-22T10:41:58.142Z,62.90
2019-03-22T10:44:30.214Z,59.70
2019-03-22T10:47:01.952Z,60.40
2019-03-22T10:49:34.803Z,60.50
2019-03-22T10:52:07.095Z,59.10
2019-03-22T10:54:38.887Z,59.30
2019-03-22T10:57:11.626Z,58.00
2019-03-22T10:59:43.561Z,57.90
2019-03-22T11:02:15.338Z,57.80
2019-03-22T11:04:47.052Z,56.10
2019-03-22T11:07:19.901Z,57.90
2019-03-22T11:09:51.581Z,58.20
2019-03-22T11:12:23.270Z,57.30
2019-03-22T11:14:54.971Z,57.00
2019-03-22T11:17:27.001Z,55.20
2019-03-22T11:19:58.565Z,55.30
2019-03-22T11:22:30.188Z,55.90
2019-03-22T11:25:04.876Z,55.30
2019-03-22T11:27:36.919Z,56.00
2019-03-22T11:30:12.819Z,56.50
2019-03-22T11:32:45.071Z,55.40
2019-03-22T11:35:17.103Z,55.30
2019-03-22T11:37:48.999Z,56.00
2019-03-22T11:40:21.915Z,57.30
2019-03-22T11:42:53.919Z,56.90
2019-03-22T11:45:25.817Z,56.30
2019-03-22T11:47:57.620Z,56.40
2019-03-22T11:50:29.530Z,56.60
2019-03-22T11:53:01.822Z,56.20
2019-03-22T11:55:33.542Z,56.90
2019-03-22T11:58:05.467Z,56.20
2019-03-22T12:00:37.372Z,55.70
2019-03-22T12:03:09.038Z,56.90
2019-03-22T12:05:41.674Z,55.60
2019-03-22T12:08:13.694Z,57.00
2019-03-22T12:10:45.311Z,58.10
2019-03-22T12:13:17.270Z,54.10
2019-03-22T12:15:50.135Z,54.90
2019-03-22T12:18:21.700Z,54.30
2019-03-22T12:20:54.983Z,54.20
2019-03-22T12:23:27.735Z,54.70
2019-03-22T12:25:59.888Z,53.00
2019-03-22T12:28:31.685Z,52.30
2019-03-22T12:31:03.752Z,51.10
2019-03-22T12:33:35.596Z,52.10
2019-03-22T12:36:08.284Z,51.50
2019-03-22T12:38:39.939Z,51.70
2019-03-22T12:41:11.662Z,52.50
2019-03-22T12:43:43.317Z,53.10
2019-03-22T12:46:15.331Z,54.40
2019-03-22T12:48:47.873Z,53.20
2019-03-22T12:51:20.689Z,51.80
2019-03-22T12:53:53.704Z,51.70
2019-03-22T12:56:25.803Z,52.10
2019-03-22T12:58:57.640Z,53.10
2019-03-22T13:01:29.410Z,52.50
2019-03-22T13:04:01.198Z,52.00
2019-03-22T13:06:32.795Z,50.10
2019-03-22T13:09:07.038Z,53.30
2019-03-22T13:11:38.815Z,52.20
2019-03-22T13:14:10.641Z,51.40
2019-03-22T13:16:42.277Z,51.20
2019-03-22T13:19:14.317Z,51.00
2019-03-22T13:21:45.905Z,51.90
2019-03-22T13:24:17.575Z,51.20
2019-03-22T13:26:49.483Z,52.20
2019-03-22T13:29:21.269Z,52.80
2019-03-22T13:31:52.931Z,52.70
2019-03-22T13:34:24.673Z,50.90
2019-03-22T13:36:56.393Z,49.60
2019-03-22T13:39:28.649Z,49.90
2019-03-22T13:42:00.858Z,50.30
2019-03-22T13:44:32.732Z,52.00
2019-03-22T13:47:04.760Z,50.70
2019-03-22T13:49:36.521Z,52.00
2019-03-22T13:52:08.216Z,51.30
2019-03-22T13:54:39.874Z,50.30
2019-03-22T13:57:11.620Z,50.40
2019-03-22T13:59:43.612Z,51.40
2019-03-22T14:02:15.457Z,52.20
2019-03-22T14:04:47.744Z,51.70
2019-03-22T14:07:19.457Z,51.90
2019-03-22T14:09:52.064Z,52.10
2019-03-22T14:12:23.708Z,53.40
2019-03-22T14:14:56.383Z,53.50
2019-03-22T14:17:28.173Z,53.20
2019-03-22T14:20:10.364Z,51.60
2019-03-22T14:22:33.332Z,52.60
2019-03-22T14:25:05.527Z,53.90
2019-03-22T14:27:37.461Z,52.80
2019-03-22T14:30:20.839Z,52.10
2019-03-22T14:32:53.022Z,52.70
2019-03-22T14:35:24.646Z,52.70
2019-03-22T14:37:57.736Z,52.90
2019-03-22T14:40:29.523Z,52.90
2019-03-22T14:43:01.201Z,52.30
2019-03-22T14:45:32.871Z,52.90
2019-03-22T14:48:04.619Z,52.40
2019-03-22T14:50:36.523Z,53.20
2019-03-22T14:53:08.148Z,53.00
2019-03-22T14:55:41.408Z,53.00
2019-03-22T14:58:13.289Z,53.00
2019-03-22T15:00:44.967Z,52.20
2019-03-22T15:03:26.489Z,54.30
2019-03-22T15:05:58.591Z,53.80
2019-03-22T15:08:30.522Z,52.40
2019-03-22T15:11:02.428Z,52.80
2019-03-22T15:14:02.134Z,53.30
2019-03-22T15:16:52.507Z,53.30
2019-03-22T15:19:52.675Z,53.60
2019-03-22T15:22:42.232Z,52.00
2019-03-22T15:25:50.564Z,52.60
2019-03-22T15:28:44.861Z,53.10
2019-03-22T15:31:35.393Z,52.50
2019-03-22T15:34:21.685Z,51.70
2019-03-22T15:37:15.391Z,51.90
2019-03-22T15:40:01.116Z,52.20
2019-03-22T15:42:52.417Z,52.30
2019-03-22T15:45:25.529Z,52.00
2019-03-22T15:48:15.972Z,51.30
2019-03-22T15:50:47.711Z,52.20
2019-03-22T15:53:19.266Z,52.20
2019-03-22T15:55:51.336Z,52.10
2019-03-22T15:58:23.329Z,51.30
2019-03-22T16:00:55.303Z,52.30
2019-03-22T16:03:26.850Z,55.20
2019-03-22T16:06:01.115Z,56.40
2019-03-22T16:08:33.690Z,58.20
2019-03-22T16:11:06.501Z,58.60
2019-03-22T16:13:38.256Z,58.50
2019-03-22T16:16:10.017Z,57.00
2019-03-22T16:18:41.628Z,57.80
2019-03-22T16:21:13.515Z,59.30
2019-03-22T16:23:49.361Z,57.90
2019-03-22T16:26:22.137Z,58.90
2019-03-22T16:28:53.643Z,59.20
2019-03-22T16:31:25.201Z,58.90
2019-03-22T16:33:57.218Z,60.80
2019-03-22T16:36:29.058Z,64.10
2019-03-22T16:39:00.795Z,62.40
2019-03-22T16:41:34.924Z,61.90
2019-03-22T16:44:06.733Z,61.40
2019-03-22T16:46:38.599Z,59.10
2019-03-22T16:49:11.487Z,59.60
2019-03-22T16:51:43.185Z,59.60
2019-03-22T16:54:15.026Z,61.40
2019-03-22T16:56:46.748Z,60.10
2019-03-22T16:59:18.436Z,60.30
2019-03-22T17:01:50.117Z,61.40
2019-03-22T17:04:21.731Z,61.40
2019-03-22T17:06:54.496Z,61.70
2019-03-22T17:09:26.083Z,60.80
2019-03-22T17:11:57.918Z,60.40
2019-03-22T17:14:29.628Z,60.10
2019-03-22T17:17:02.293Z,59.50
2019-03-22T17:19:34.133Z,59.70
2019-03-22T17:22:06.114Z,60.60
2019-03-22T17:24:38.146Z,60.20
2019-03-22T17:27:14.968Z,62.10
2019-03-22T17:29:55.049Z,65.80
2019-03-22T17:32:29.397Z,68.10
2019-03-22T17:35:00.975Z,69.60
2019-03-22T17:37:33.652Z,75.00
2019-03-22T17:40:05.647Z,74.60
2019-03-22T17:42:37.626Z,74.80
2019-03-22T17:45:10.003Z,78.80
2019-03-22T17:47:41.576Z,78.10
2019-03-22T17:50:13.991Z,71.70
2019-03-22T17:52:46.918Z,70.30
2019-03-22T17:55:18.611Z,67.10
2019-03-22T17:57:50.670Z,68.40
2019-03-22T18:00:24.651Z,68.00
2019-03-22T18:02:57.366Z,70.50
2019-03-22T18:05:28.854Z,67.00
2019-03-22T18:08:11.409Z,67.50
2019-03-22T18:10:44.057Z,70.60
2019-03-22T18:13:15.792Z,68.20
2019-03-22T18:15:47.734Z,68.00
2019-03-22T18:18:19.415Z,68.20
2019-03-22T18:20:51.403Z,70.50
2019-03-22T18:23:23.211Z,71.20
2019-03-22T18:25:54.936Z,74.60
2019-03-22T18:28:26.729Z,75.70
2019-03-22T18:30:58.361Z,73.60
2019-03-22T18:33:30.034Z,70.60
2019-03-22T18:36:01.607Z,71.50
2019-03-22T18:38:33.295Z,70.60
2019-03-22T18:41:06.211Z,71.40
2019-03-22T18:43:37.874Z,72.00
2019-03-22T18:46:09.565Z,77.20
2019-03-22T18:48:41.137Z,85.90
2019-03-22T18:51:13.108Z,90.00
2019-03-22T18:53:45.814Z,92.60
2019-03-22T18:56:17.393Z,96.00
2019-03-22T18:58:49.103Z,96.40
2019-03-22T19:01:20.866Z,98.40
2019-03-22T19:03:52.776Z,97.80
2019-03-22T19:06:24.455Z,95.20
2019-03-22T19:08:56.318Z,87.90
2019-03-22T19:11:28.897Z,85.60
2019-03-22T19:14:00.990Z,85.40
2019-03-22T19:16:32.840Z,86.20
2019-03-22T19:19:05.552Z,85.90
2019-03-22T19:21:37.411Z,84.80
2019-03-22T19:24:09.922Z,86.50
2019-03-22T19:26:41.545Z,85.10
2019-03-22T19:29:14.363Z,85.00
2019-03-22T19:31:46.261Z,84.10
2019-03-22T19:34:18.077Z,84.30
2019-03-22T19:36:49.797Z,83.80
2019-03-22T19:39:21.737Z,82.80
2019-03-22T19:41:53.714Z,83.20
2019-03-22T19:44:25.574Z,84.20
2019-03-22T19:46:58.593Z,86.70
2019-03-22T19:49:31.370Z,91.80
2019-03-22T19:52:03.700Z,91.70
2019-03-22T19:54:36.759Z,89.10
2019-03-22T19:57:08.954Z,89.40
2019-03-22T19:59:51.548Z,89.40
2019-03-22T20:02:23.583Z,89.30
2019-03-22T20:05:04.409Z,87.50
2019-03-22T20:07:30.087Z,88.90
2019-03-22T20:10:02.104Z,92.90
2019-03-22T20:12:34.885Z,93.20
2019-03-22T20:15:07.867Z,93.50
2019-03-22T20:17:41.171Z,93.80
2019-03-22T20:20:13.212Z,93.50
2019-03-22T20:22:45.179Z,94.60
2019-03-22T20:25:17.378Z,91.20
2019-03-22T20:27:49.275Z,90.60
2019-03-22T20:30:21.483Z,85.90
2019-03-22T20:32:53.240Z,88.10
2019-03-22T20:35:25.124Z,86.20
2019-03-22T20:37:57.085Z,87.90
2019-03-22T20:40:28.945Z,90.30
2019-03-22T20:43:00.993Z,91.90
2019-03-22T20:45:33.776Z,92.90
2019-03-22T20:48:05.713Z,91.80
2019-03-22T20:50:38.761Z,91.20
2019-03-22T20:53:10.832Z,90.50
2019-03-22T20:55:42.740Z,90.60
2019-03-22T20:58:15.324Z,91.50
2019-03-22T21:00:47.242Z,91.30
2019-03-22T21:03:20.124Z,91.10
2019-03-22T21:05:51.836Z,90.30
2019-03-22T21:08:23.624Z,90.30
2019-03-22T21:10:55.439Z,89.80
2019-03-22T21:13:27.364Z,87.10
2019-03-22T21:15:59.008Z,89.30
2019-03-22T21:18:30.841Z,88.60
2019-03-22T21:21:02.684Z,86.90
2019-03-22T21:23:36.518Z,87.90
2019-03-22T21:26:07.942Z,86.80
2019-03-22T21:28:39.903Z,83.90
2019-03-22T21:31:11.453Z,83.50
2019-03-22T21:33:43.190Z,84.40
2019-03-22T21:36:14.695Z,85.00
2019-03-22T21:38:46.511Z,84.60
2019-03-22T21:41:18.611Z,84.30
2019-03-22T21:43:50.977Z,86.10
2019-03-22T21:46:24.556Z,88.00
2019-03-22T21:48:56.572Z,87.60
2019-03-22T21:51:29.520Z,87.30
2019-03-22T21:54:01.169Z,86.00
2019-03-22T21:56:32.698Z,89.70
2019-03-22T21:59:04.329Z,96.90
2019-03-22T22:01:36.315Z,99.90
2019-03-22T22:04:08.310Z,99.90
2019-03-22T22:06:39.929Z,99.90
2019-03-22T22:09:11.758Z,99.90
2019-03-22T22:11:43.547Z,99.90
2019-03-22T22:14:15.292Z,99.90
2019-03-22T22:16:47.226Z,99.90
2019-03-22T22:19:18.836Z,99.90
2019-03-22T22:21:50.640Z,99.90
2019-03-22T22:24:22.259Z,99.90
2019-03-22T22:26:54.050Z,99.90
2019-03-22T22:29:25.930Z,99.90
2019-03-22T22:31:57.571Z,99.90
2019-03-22T22:34:29.338Z,99.90
2019-03-22T22:37:00.942Z,99.90
2019-03-22T22:39:32.837Z,99.90
2019-03-22T22:42:04.460Z,99.90
2019-03-22T22:44:36.216Z,99.90
2019-03-22T22:47:07.886Z,99.90
2019-03-22T22:49:39.568Z,99.90
2019-03-22T22:52:11.165Z,99.90
2019-03-22T22:54:42.873Z,99.90
2019-03-22T22:57:14.598Z,99.90
2019-03-22T22:59:46.267Z,99.90
2019-03-22T23:02:18.128Z,99.90
2019-03-22T23:04:51.922Z,99.90
2019-03-22T23:07:23.997Z,99.90
2019-03-22T23:09:56.055Z,99.90
2019-03-22T23:12:27.699Z,99.90
2019-03-22T23:15:01.002Z,99.90
2019-03-22T23:17:32.585Z,99.90
2019-03-22T23:20:04.627Z,99.90
2019-03-22T23:22:36.283Z,99.90
2019-03-22T23:25:08.494Z,99.90
2019-03-22T23:27:40.576Z,99.90
2019-03-22T23:30:13.795Z,99.90
2019-03-22T23:32:45.594Z,99.90
2019-03-22T23:35:17.211Z,99.90
2019-03-22T23:37:48.789Z,99.90
2019-03-22T23:40:20.421Z,99.90
2019-03-22T23:42:52.139Z,99.90
2019-03-22T23:45:24.060Z,99.90
2019-03-22T23:48:14.336Z,99.90
2019-03-22T23:50:47.158Z,99.90
2019-03-22T23:53:18.969Z,99.90
2019-03-22T23:55:50.742Z,99.90
2019-03-22T23:58:22.444Z,99.90
